Abu Dhabi International Airport

Airport
ICAO code: 
OMAA
IATA Code: 
AUH
Summary
ICAO Region: 
MID
Location: 
Abu Dhabi, Abu Dhabi
Serving: 
Abu Dhabi
Elevation: 
88 ft
Coordinates: 
Aerial View: 
24° 25' 59.016" N, 54° 39' 3.996" E
Airport LOS: 
Parallel Runway Operation
Airport WX: 
Fog
Metar
Observation
OMAA 071700Z 36005KT 270V020 CAVOK 23/17 Q1018 NOSIG
Station
Abu Dhabi International Airport
Date/Time
2021-12-07 17:00:00
Wind direction
360°
Wind speed
05 kts
Lowest cloud amount
clouds and visibility OK
Temperature
23°C
Dew point
17°C
Humidity
69%
QNH
1018 hPa
Weather condition
n/a

International airport to the east of the city of Abu Dhabi.

Climatology

Hot Desert Climate (Köppen climate classification BWh)

Runways

Designator Length Width Surface Rops
13/31 4100 45 ASP Yes/Yes
Airport map: 
Aerial View: 

SKYbrary Partners:

Safety knowledge contributed by: